createdAt,value
2022-08-27T00:02:20.542Z,98.90
2022-08-27T00:04:50.246Z,99.00
2022-08-27T00:07:17.493Z,98.90
2022-08-27T00:09:44.423Z,98.90
2022-08-27T00:12:11.711Z,99.00
2022-08-27T00:14:39.068Z,99.20
2022-08-27T00:17:06.740Z,99.30
2022-08-27T00:19:33.693Z,99.40
2022-08-27T00:22:02.005Z,99.30
2022-08-27T00:24:28.972Z,99.30
2022-08-27T00:26:56.251Z,99.40
2022-08-27T00:29:23.500Z,99.50
2022-08-27T00:31:53.284Z,99.30
2022-08-27T00:34:21.601Z,99.40
2022-08-27T00:36:48.517Z,99.30
2022-08-27T00:39:16.843Z,99.50
2022-08-27T00:41:43.751Z,99.70
2022-08-27T00:44:10.756Z,99.90
2022-08-27T00:46:39.661Z,99.90
2022-08-27T00:49:09.498Z,99.90
2022-08-27T00:51:37.156Z,99.90
2022-08-27T00:54:04.635Z,99.90
2022-08-27T00:56:34.871Z,99.90
2022-08-27T00:59:02.336Z,99.90
2022-08-27T01:01:30.164Z,99.90
2022-08-27T01:03:59.263Z,99.90
2022-08-27T01:06:28.722Z,99.90
2022-08-27T01:08:57.856Z,99.90
2022-08-27T01:11:25.231Z,99.90
2022-08-27T01:13:59.947Z,99.90
2022-08-27T01:16:30.543Z,99.90
2022-08-27T01:18:58.685Z,99.90
2022-08-27T01:21:29.018Z,99.90
2022-08-27T01:24:01.911Z,99.90
2022-08-27T01:26:30.833Z,99.90
2022-08-27T01:28:58.311Z,99.90
2022-08-27T01:31:25.443Z,99.90
2022-08-27T01:33:57.143Z,99.90
2022-08-27T01:36:24.195Z,99.90
2022-08-27T01:38:51.161Z,99.90
2022-08-27T01:41:18.971Z,99.90
2022-08-27T01:43:48.518Z,99.90
2022-08-27T01:46:15.757Z,99.90
2022-08-27T01:48:42.779Z,99.90
2022-08-27T01:51:09.857Z,99.90
2022-08-27T01:53:36.811Z,99.90
2022-08-27T01:56:04.844Z,99.90
2022-08-27T01:58:32.909Z,99.90
2022-08-27T02:01:05.181Z,99.90
2022-08-27T02:03:32.650Z,99.90
2022-08-27T02:06:00.708Z,99.90
2022-08-27T02:08:27.640Z,99.90
2022-08-27T02:10:54.643Z,99.90
2022-08-27T02:13:21.698Z,99.90
2022-08-27T02:15:48.900Z,99.90
2022-08-27T02:18:17.453Z,99.90
2022-08-27T02:20:45.466Z,99.90
2022-08-27T02:23:12.970Z,99.90
2022-08-27T02:25:40.819Z,99.90
2022-08-27T02:28:08.205Z,99.90
2022-08-27T02:30:35.458Z,99.90
2022-08-27T02:33:03.209Z,99.90
2022-08-27T02:35:31.961Z,99.90
2022-08-27T02:37:59.270Z,99.90
2022-08-27T02:40:26.382Z,99.90
2022-08-27T02:42:53.498Z,99.90
2022-08-27T02:45:20.876Z,99.90
2022-08-27T02:47:48.512Z,99.90
2022-08-27T02:50:15.776Z,99.90
2022-08-27T02:52:45.375Z,99.90
2022-08-27T02:55:14.368Z,99.90
2022-08-27T02:57:44.389Z,99.90
2022-08-27T03:00:13.204Z,99.90
2022-08-27T03:02:40.163Z,99.90
2022-08-27T03:05:08.123Z,99.90
2022-08-27T03:07:35.111Z,99.90
2022-08-27T03:10:04.123Z,99.90
2022-08-27T03:12:32.014Z,99.90
2022-08-27T03:14:59.187Z,99.90
2022-08-27T03:17:44.757Z,99.90
2022-08-27T03:20:12.451Z,99.90
2022-08-27T03:22:40.250Z,99.90
2022-08-27T03:25:09.304Z,99.90
2022-08-27T03:27:36.345Z,99.90
2022-08-27T03:30:04.260Z,99.90
2022-08-27T03:32:31.241Z,99.90
2022-08-27T03:34:58.612Z,99.90
2022-08-27T03:37:26.044Z,99.90
2022-08-27T03:39:53.019Z,99.90
2022-08-27T03:42:21.323Z,99.90
2022-08-27T03:44:48.294Z,99.90
2022-08-27T03:47:15.589Z,99.90
2022-08-27T03:49:42.535Z,99.90
2022-08-27T03:52:10.032Z,99.90
2022-08-27T03:54:37.549Z,99.90
2022-08-27T03:57:05.156Z,99.90
2022-08-27T03:59:33.564Z,99.90
2022-08-27T04:02:00.603Z,99.90
2022-08-27T04:04:27.958Z,99.90
2022-08-27T04:06:58.285Z,99.90
2022-08-27T04:09:26.239Z,99.90
2022-08-27T04:11:53.388Z,99.90
2022-08-27T04:14:26.489Z,99.90
2022-08-27T04:16:56.693Z,99.90
2022-08-27T04:19:27.732Z,99.90
2022-08-27T04:22:00.143Z,99.90
2022-08-27T04:24:27.103Z,99.90
2022-08-27T04:26:54.061Z,99.90
2022-08-27T04:29:21.029Z,99.90
2022-08-27T04:31:48.107Z,99.90
2022-08-27T04:34:16.803Z,99.90
2022-08-27T04:36:43.728Z,99.90
2022-08-27T04:39:10.679Z,99.90
2022-08-27T04:41:37.654Z,99.90
2022-08-27T04:44:05.519Z,99.90
2022-08-27T04:46:34.122Z,99.90
2022-08-27T04:49:02.446Z,99.90
2022-08-27T04:51:33.746Z,99.90
2022-08-27T04:54:02.296Z,99.90
2022-08-27T04:56:29.661Z,99.90
2022-08-27T04:58:56.911Z,99.90
2022-08-27T05:01:25.159Z,99.90
2022-08-27T05:03:52.237Z,99.90
2022-08-27T05:06:19.472Z,99.90
2022-08-27T05:08:47.957Z,99.90
2022-08-27T05:11:15.574Z,99.90
2022-08-27T05:13:42.934Z,99.90
2022-08-27T05:16:11.734Z,99.90
2022-08-27T05:18:46.397Z,99.90
2022-08-27T05:21:16.943Z,99.90
2022-08-27T05:23:44.306Z,99.90
2022-08-27T05:26:13.015Z,99.90
2022-08-27T05:28:40.025Z,99.90
2022-08-27T05:31:08.505Z,99.90
2022-08-27T05:33:35.854Z,99.90
2022-08-27T05:36:03.081Z,99.90
2022-08-27T05:38:30.691Z,99.90
2022-08-27T05:41:06.327Z,99.90
2022-08-27T05:43:34.847Z,99.90
2022-08-27T05:46:04.365Z,99.90
2022-08-27T05:48:32.015Z,99.90
2022-08-27T05:50:59.252Z,99.50
2022-08-27T05:53:26.788Z,96.80
2022-08-27T05:55:53.707Z,94.60
2022-08-27T05:58:39.451Z,93.30
2022-08-27T06:01:10.272Z,92.90
2022-08-27T06:03:38.035Z,93.00
2022-08-27T06:06:06.210Z,93.30
2022-08-27T06:08:33.127Z,92.40
2022-08-27T06:11:01.687Z,92.00
2022-08-27T06:13:29.432Z,91.90
2022-08-27T06:16:00.819Z,91.90
2022-08-27T06:18:29.168Z,91.80
2022-08-27T06:20:56.694Z,91.70
2022-08-27T06:23:27.925Z,91.90
2022-08-27T06:25:55.576Z,91.70
2022-08-27T06:28:23.426Z,90.70
2022-08-27T06:30:50.739Z,90.10
2022-08-27T06:33:17.800Z,87.80
2022-08-27T06:35:46.193Z,86.30
2022-08-27T06:38:13.287Z,84.80
2022-08-27T06:40:40.617Z,82.10
2022-08-27T06:43:07.552Z,79.00
2022-08-27T06:45:37.306Z,76.20
2022-08-27T06:48:05.114Z,72.60
2022-08-27T06:50:36.867Z,68.50
2022-08-27T06:53:05.147Z,64.10
2022-08-27T06:55:35.417Z,62.10
2022-08-27T06:58:04.288Z,63.30
2022-08-27T07:00:31.276Z,61.40
2022-08-27T07:02:58.210Z,57.30
2022-08-27T07:05:26.200Z,55.20
2022-08-27T07:07:53.314Z,53.20
2022-08-27T07:10:21.836Z,53.30
2022-08-27T07:12:48.852Z,53.10
2022-08-27T07:15:15.997Z,54.10
2022-08-27T07:17:44.863Z,52.70
2022-08-27T07:20:12.585Z,53.80
2022-08-27T07:22:40.640Z,52.20
2022-08-27T07:25:09.812Z,52.00
2022-08-27T07:27:38.155Z,52.00
2022-08-27T07:30:09.550Z,52.30
2022-08-27T07:32:36.462Z,53.60
2022-08-27T07:35:04.563Z,55.00
2022-08-27T07:37:35.331Z,55.10
2022-08-27T07:40:03.593Z,55.20
2022-08-27T07:42:49.360Z,55.10
2022-08-27T07:45:17.857Z,51.90
2022-08-27T07:47:44.992Z,51.40
2022-08-27T07:50:12.003Z,52.20
2022-08-27T07:52:38.950Z,51.80
2022-08-27T07:55:06.500Z,52.20
2022-08-27T07:57:33.488Z,52.50
2022-08-27T08:00:00.408Z,55.30
2022-08-27T08:02:31.057Z,55.70
2022-08-27T08:05:00.748Z,57.30
2022-08-27T08:07:29.298Z,58.40
2022-08-27T08:09:56.442Z,59.10
2022-08-27T08:12:26.501Z,59.40
2022-08-27T08:14:57.821Z,59.20
2022-08-27T08:17:25.753Z,58.90
2022-08-27T08:20:15.755Z,61.70
2022-08-27T08:22:43.485Z,61.50
2022-08-27T08:25:12.998Z,61.10
2022-08-27T08:27:41.237Z,62.60
2022-08-27T08:30:09.262Z,62.80
2022-08-27T08:32:37.054Z,63.40
2022-08-27T08:35:09.143Z,63.50
2022-08-27T08:37:36.562Z,63.70
2022-08-27T08:40:04.577Z,66.20
2022-08-27T08:42:35.812Z,66.70
2022-08-27T08:45:04.625Z,66.80
2022-08-27T08:47:37.584Z,66.20
2022-08-27T08:50:08.415Z,65.80
2022-08-27T08:52:50.408Z,64.20
2022-08-27T08:55:29.231Z,65.20
2022-08-27T08:58:02.195Z,59.60
2022-08-27T09:00:29.763Z,57.50
2022-08-27T09:02:57.299Z,57.20
2022-08-27T09:05:27.819Z,58.20
2022-08-27T09:08:28.452Z,56.50
2022-08-27T09:10:54.966Z,58.00
2022-08-27T09:13:25.487Z,57.40
2022-08-27T09:15:55.554Z,58.10
2022-08-27T09:18:25.072Z,54.80
2022-08-27T09:21:00.977Z,55.50
2022-08-27T09:23:39.128Z,55.50
2022-08-27T09:26:17.440Z,57.70
2022-08-27T09:29:03.284Z,56.10
2022-08-27T09:31:30.328Z,52.50
2022-08-27T09:33:57.319Z,52.30
2022-08-27T09:36:24.719Z,52.90
2022-08-27T09:38:52.788Z,53.50
2022-08-27T09:41:28.406Z,53.80
2022-08-27T09:43:59.558Z,54.60
2022-08-27T09:46:27.594Z,53.70
2022-08-27T09:48:55.144Z,53.60
2022-08-27T09:51:24.114Z,53.80
2022-08-27T09:53:52.886Z,53.60
2022-08-27T09:56:26.456Z,55.30
2022-08-27T09:59:02.200Z,57.80
2022-08-27T10:01:30.779Z,58.70
2022-08-27T10:04:09.071Z,58.80
2022-08-27T10:06:37.908Z,59.00
2022-08-27T10:09:08.391Z,58.60
2022-08-27T10:11:38.074Z,59.20
2022-08-27T10:14:14.237Z,58.40
2022-08-27T10:16:47.532Z,57.80
2022-08-27T10:19:18.785Z,59.00
2022-08-27T10:21:49.942Z,59.20
2022-08-27T10:24:20.788Z,59.10
2022-08-27T10:26:51.565Z,58.00
2022-08-27T10:29:29.122Z,57.20
2022-08-27T10:32:04.125Z,57.70
2022-08-27T10:34:34.568Z,58.60
2022-08-27T10:37:10.568Z,58.30
2022-08-27T10:39:45.381Z,58.30
2022-08-27T10:42:15.047Z,58.20
2022-08-27T10:44:46.857Z,58.40
2022-08-27T10:47:19.287Z,57.90
2022-08-27T10:49:52.043Z,59.00
2022-08-27T10:52:22.317Z,57.80
2022-08-27T10:54:53.263Z,56.60
2022-08-27T10:57:39.937Z,55.00
2022-08-27T11:00:14.888Z,55.00
2022-08-27T11:02:45.787Z,54.50
2022-08-27T11:05:15.806Z,56.20
2022-08-27T11:07:46.407Z,57.40
2022-08-27T11:10:20.861Z,58.60
2022-08-27T11:12:50.584Z,58.60
2022-08-27T11:15:20.975Z,57.80
2022-08-27T11:17:52.189Z,58.90
2022-08-27T11:20:21.725Z,58.60
2022-08-27T11:22:51.187Z,58.10
2022-08-27T11:25:27.205Z,57.70
2022-08-27T11:27:56.474Z,57.70
2022-08-27T11:30:29.392Z,58.20
2022-08-27T11:33:02.013Z,60.00
2022-08-27T11:35:32.443Z,58.30
2022-08-27T11:38:18.138Z,58.60
2022-08-27T11:40:51.303Z,58.30
2022-08-27T11:43:21.967Z,58.40
2022-08-27T11:45:55.684Z,59.00
2022-08-27T11:48:24.068Z,59.10
2022-08-27T11:50:56.515Z,56.70
2022-08-27T11:53:28.307Z,57.20
2022-08-27T11:55:56.189Z,56.40
2022-08-27T11:58:25.686Z,57.00
2022-08-27T12:00:54.317Z,57.90
2022-08-27T12:03:27.152Z,56.30
2022-08-27T12:06:18.483Z,57.40
2022-08-27T12:08:45.778Z,56.40
2022-08-27T12:11:19.433Z,56.60
2022-08-27T12:13:53.443Z,56.50
2022-08-27T12:16:25.680Z,57.60
2022-08-27T12:19:06.277Z,57.20
2022-08-27T12:21:38.494Z,58.20
2022-08-27T12:24:13.892Z,56.90
2022-08-27T12:26:42.856Z,53.90
2022-08-27T12:30:31.927Z,55.20
2022-08-27T12:33:04.427Z,54.80
2022-08-27T12:35:32.719Z,56.30
2022-08-27T12:38:10.409Z,56.60
2022-08-27T12:40:40.717Z,60.30
2022-08-27T12:43:08.863Z,61.10
2022-08-27T12:45:43.323Z,61.10
2022-08-27T12:48:10.828Z,62.30
2022-08-27T12:50:38.433Z,63.60
2022-08-27T12:53:12.671Z,65.60
2022-08-27T12:55:49.572Z,65.90
2022-08-27T12:58:20.129Z,66.10
2022-08-27T13:00:58.820Z,65.30
2022-08-27T13:03:31.231Z,65.50
2022-08-27T13:06:00.204Z,65.30
2022-08-27T13:08:28.910Z,65.30
2022-08-27T13:10:56.227Z,63.50
2022-08-27T13:13:24.674Z,62.60
2022-08-27T13:15:55.789Z,59.30
2022-08-27T13:18:23.485Z,58.90
2022-08-27T13:20:53.251Z,58.70
2022-08-27T13:23:24.958Z,59.40
2022-08-27T13:25:56.871Z,60.00
2022-08-27T13:28:25.684Z,60.60
2022-08-27T13:30:54.938Z,58.20
2022-08-27T13:33:23.116Z,59.00
2022-08-27T13:35:50.950Z,60.30
2022-08-27T13:38:19.141Z,61.70
2022-08-27T13:40:51.879Z,63.80
2022-08-27T13:43:19.279Z,64.00
2022-08-27T13:45:48.733Z,63.80
2022-08-27T13:48:18.066Z,64.50
2022-08-27T13:50:49.155Z,64.70
2022-08-27T13:53:38.111Z,66.30
2022-08-27T13:56:05.172Z,68.10
2022-08-27T13:58:33.595Z,70.00
2022-08-27T14:01:08.477Z,68.90
2022-08-27T14:03:45.897Z,69.20
2022-08-27T14:06:21.988Z,65.90
2022-08-27T14:08:48.930Z,67.40
2022-08-27T14:11:22.379Z,67.20
2022-08-27T14:13:49.608Z,66.90
2022-08-27T14:16:25.064Z,67.60
2022-08-27T14:18:59.184Z,64.40
2022-08-27T14:21:26.641Z,62.30
2022-08-27T14:23:54.281Z,62.10
2022-08-27T14:26:21.476Z,60.70
2022-08-27T14:28:48.503Z,61.30
2022-08-27T14:31:15.789Z,59.70
2022-08-27T14:33:42.866Z,61.80
2022-08-27T14:36:11.191Z,61.20
2022-08-27T14:38:42.135Z,62.90
2022-08-27T14:41:09.322Z,62.10
2022-08-27T14:43:39.023Z,62.00
2022-08-27T14:46:11.775Z,60.40
2022-08-27T14:48:42.050Z,60.00
2022-08-27T14:51:17.156Z,60.30
2022-08-27T14:53:44.091Z,62.10
2022-08-27T14:56:11.293Z,60.90
2022-08-27T14:58:38.233Z,60.70
2022-08-27T15:01:05.794Z,62.00
2022-08-27T15:03:35.404Z,62.80
2022-08-27T15:06:02.342Z,60.90
2022-08-27T15:08:32.249Z,60.30
2022-08-27T15:10:59.916Z,59.40
2022-08-27T15:13:27.284Z,61.90
2022-08-27T15:15:54.394Z,60.60
2022-08-27T15:18:21.336Z,60.00
2022-08-27T15:20:48.469Z,62.40
2022-08-27T15:23:15.946Z,60.80
2022-08-27T15:25:45.291Z,62.20
2022-08-27T15:28:12.585Z,60.20
2022-08-27T15:30:39.876Z,59.80
2022-08-27T15:33:06.962Z,59.30
2022-08-27T15:35:34.572Z,60.70
2022-08-27T15:38:02.220Z,60.60
2022-08-27T15:40:32.066Z,59.20
2022-08-27T15:43:02.245Z,59.10
2022-08-27T15:45:29.859Z,59.60
2022-08-27T15:47:57.387Z,59.90
2022-08-27T15:50:24.831Z,60.10
2022-08-27T15:52:55.006Z,62.60
2022-08-27T15:55:23.359Z,62.20
2022-08-27T15:57:50.735Z,62.00
2022-08-27T16:00:20.293Z,61.70
2022-08-27T16:02:48.502Z,61.10
2022-08-27T16:05:16.006Z,62.30
2022-08-27T16:07:43.627Z,62.10
2022-08-27T16:10:11.310Z,62.30
2022-08-27T16:12:38.935Z,63.90
2022-08-27T16:15:06.880Z,63.60
2022-08-27T16:17:35.757Z,64.70
2022-08-27T16:20:03.754Z,64.50
2022-08-27T16:22:30.715Z,63.50
2022-08-27T16:24:57.749Z,64.10
2022-08-27T16:27:24.673Z,64.40
2022-08-27T16:29:51.628Z,64.60
2022-08-27T16:32:19.372Z,65.50
2022-08-27T16:34:55.388Z,65.90
2022-08-27T16:37:23.966Z,66.00
2022-08-27T16:39:52.019Z,68.00
2022-08-27T16:42:19.554Z,67.80
2022-08-27T16:44:46.854Z,68.80
2022-08-27T16:47:14.053Z,69.40
2022-08-27T16:50:00.323Z,70.30
2022-08-27T16:52:28.853Z,70.30
2022-08-27T16:54:56.959Z,69.50
2022-08-27T16:57:24.218Z,69.30
2022-08-27T16:59:51.293Z,70.10
2022-08-27T17:02:23.001Z,71.40
2022-08-27T17:04:58.463Z,70.90
2022-08-27T17:07:35.960Z,71.50
2022-08-27T17:10:06.939Z,72.10
2022-08-27T17:12:34.188Z,72.50
2022-08-27T17:15:01.425Z,73.60
2022-08-27T17:17:29.685Z,72.90
2022-08-27T17:19:56.771Z,74.50
2022-08-27T17:22:24.529Z,74.70
2022-08-27T17:24:52.801Z,75.20
2022-08-27T17:27:20.417Z,76.00
2022-08-27T17:29:47.570Z,76.70
2022-08-27T17:32:14.889Z,77.90
2022-08-27T17:34:42.125Z,77.60
2022-08-27T17:37:09.283Z,77.90
2022-08-27T17:39:36.219Z,77.70
2022-08-27T17:42:06.037Z,78.50
2022-08-27T17:44:34.933Z,79.50
2022-08-27T17:47:03.442Z,80.60
2022-08-27T17:49:31.189Z,80.40
2022-08-27T17:51:59.548Z,79.80
2022-08-27T17:54:29.931Z,79.50
2022-08-27T17:56:57.283Z,78.40
2022-08-27T17:59:26.892Z,78.10
2022-08-27T18:01:54.025Z,78.50
2022-08-27T18:04:21.474Z,77.90
2022-08-27T18:06:48.730Z,78.90
2022-08-27T18:09:16.012Z,78.50
2022-08-27T18:11:43.195Z,78.40
2022-08-27T18:14:11.603Z,78.30
2022-08-27T18:16:40.668Z,78.50
2022-08-27T18:19:08.670Z,78.10
2022-08-27T18:21:35.763Z,78.30
2022-08-27T18:24:13.537Z,80.90
2022-08-27T18:26:40.701Z,80.30
2022-08-27T18:29:07.864Z,78.60
2022-08-27T18:31:35.286Z,79.30
2022-08-27T18:34:03.667Z,81.10
2022-08-27T18:36:31.129Z,80.90
2022-08-27T18:38:58.410Z,83.90
2022-08-27T18:41:26.453Z,83.90
2022-08-27T18:43:54.598Z,84.90
2022-08-27T18:46:21.660Z,83.90
2022-08-27T18:48:48.672Z,82.00
2022-08-27T18:51:19.625Z,84.00
2022-08-27T18:53:47.496Z,85.20
2022-08-27T18:56:16.580Z,85.30
2022-08-27T18:58:44.177Z,84.20
2022-08-27T19:01:12.781Z,84.10
2022-08-27T19:03:42.055Z,84.10
2022-08-27T19:06:12.583Z,85.40
2022-08-27T19:08:43.421Z,86.50
2022-08-27T19:11:10.822Z,86.70
2022-08-27T19:13:37.844Z,86.30
2022-08-27T19:16:06.084Z,85.90
2022-08-27T19:18:34.600Z,85.90
2022-08-27T19:21:01.757Z,86.20
2022-08-27T19:23:28.868Z,87.30
2022-08-27T19:25:57.962Z,87.10
2022-08-27T19:28:28.039Z,87.10
2022-08-27T19:30:55.046Z,87.80
2022-08-27T19:33:22.560Z,89.10
2022-08-27T19:35:49.767Z,89.50
2022-08-27T19:38:16.743Z,90.00
2022-08-27T19:40:43.841Z,91.20
2022-08-27T19:43:12.162Z,91.90
2022-08-27T19:45:40.278Z,92.10
2022-08-27T19:48:08.127Z,92.90
2022-08-27T19:50:35.254Z,93.00
2022-08-27T19:53:02.232Z,93.00
2022-08-27T19:55:29.448Z,93.50
2022-08-27T19:57:56.442Z,93.80
2022-08-27T20:00:27.689Z,93.30
2022-08-27T20:02:55.313Z,93.70
2022-08-27T20:05:23.038Z,94.60
2022-08-27T20:07:52.142Z,95.50
2022-08-27T20:10:20.000Z,95.40
2022-08-27T20:12:48.807Z,95.30
2022-08-27T20:15:16.083Z,96.00
2022-08-27T20:17:45.293Z,95.80
2022-08-27T20:20:12.396Z,95.90
2022-08-27T20:22:39.772Z,95.70
2022-08-27T20:25:07.273Z,96.30
2022-08-27T20:27:34.880Z,97.20
2022-08-27T20:30:04.667Z,97.20
2022-08-27T20:32:31.912Z,97.00
2022-08-27T20:35:00.189Z,97.30
2022-08-27T20:37:27.156Z,97.70
2022-08-27T20:39:54.360Z,97.30
2022-08-27T20:42:21.508Z,97.50
2022-08-27T20:44:49.185Z,98.00
2022-08-27T20:47:16.977Z,98.10
2022-08-27T20:49:44.563Z,98.50
2022-08-27T20:52:13.206Z,98.80
2022-08-27T20:54:40.604Z,99.10
2022-08-27T20:57:08.853Z,98.70
2022-08-27T20:59:54.572Z,98.70
2022-08-27T21:02:22.861Z,99.30
2022-08-27T21:04:49.984Z,99.60
2022-08-27T21:07:19.260Z,99.70
2022-08-27T21:09:56.369Z,99.90
2022-08-27T21:12:25.003Z,99.50
2022-08-27T21:14:55.774Z,99.70
2022-08-27T21:17:24.696Z,99.20
2022-08-27T21:19:54.492Z,98.90
2022-08-27T21:22:23.833Z,98.70
2022-08-27T21:24:51.481Z,99.20
2022-08-27T21:27:19.474Z,99.30
2022-08-27T21:29:46.641Z,98.80
2022-08-27T21:32:14.263Z,98.70
2022-08-27T21:34:44.278Z,98.80
2022-08-27T21:37:17.435Z,99.00
2022-08-27T21:39:46.862Z,98.90
2022-08-27T21:42:15.998Z,98.80
2022-08-27T21:44:44.006Z,98.50
2022-08-27T21:47:11.190Z,98.30
2022-08-27T21:49:38.972Z,98.10
2022-08-27T21:52:07.164Z,98.00
2022-08-27T21:54:35.056Z,98.10
2022-08-27T21:57:04.624Z,97.90
2022-08-27T21:59:31.981Z,98.00
2022-08-27T22:02:01.197Z,98.20
2022-08-27T22:04:30.920Z,98.20
2022-08-27T22:06:58.886Z,98.30
2022-08-27T22:09:26.230Z,98.20
2022-08-27T22:11:53.404Z,98.70
2022-08-27T22:14:22.266Z,99.00
2022-08-27T22:16:50.154Z,99.50
2022-08-27T22:19:17.783Z,99.70
2022-08-27T22:21:47.674Z,99.50
2022-08-27T22:24:15.127Z,99.30
2022-08-27T22:26:42.470Z,99.40
2022-08-27T22:29:09.650Z,99.60
2022-08-27T22:31:38.755Z,99.60
2022-08-27T22:34:06.256Z,99.60
2022-08-27T22:36:33.483Z,99.60
2022-08-27T22:39:03.502Z,99.90
2022-08-27T22:41:32.486Z,99.90
2022-08-27T22:43:59.809Z,99.90
2022-08-27T22:46:26.941Z,99.90
2022-08-27T22:48:55.695Z,99.90
2022-08-27T22:51:22.816Z,99.60
2022-08-27T22:53:49.920Z,99.60
2022-08-27T22:56:17.051Z,99.80
2022-08-27T22:58:46.150Z,99.80
2022-08-27T23:01:13.573Z,99.90
2022-08-27T23:03:40.654Z,99.90
2022-08-27T23:06:09.035Z,99.90
2022-08-27T23:08:37.205Z,99.90
2022-08-27T23:11:04.607Z,99.90
2022-08-27T23:13:32.828Z,99.90
2022-08-27T23:16:01.572Z,99.90
2022-08-27T23:18:32.204Z,99.90
2022-08-27T23:20:59.351Z,99.90
2022-08-27T23:23:30.692Z,99.90
2022-08-27T23:26:16.373Z,99.90
2022-08-27T23:28:44.193Z,99.90
2022-08-27T23:31:11.255Z,99.90
2022-08-27T23:33:38.540Z,99.90
2022-08-27T23:36:05.983Z,99.90
2022-08-27T23:38:34.545Z,99.90
2022-08-27T23:41:01.492Z,99.90
2022-08-27T23:43:28.449Z,99.90
2022-08-27T23:45:55.597Z,99.90
2022-08-27T23:48:22.567Z,99.90
2022-08-27T23:50:49.479Z,99.90
2022-08-27T23:53:16.385Z,99.90
2022-08-27T23:55:44.669Z,99.90
2022-08-27T23:58:11.791Z,99.90
